• Join FlightAware (Why Join?)
  • Login
  • US Flag 
09:09PM EDT


 

Airport Tracker/Info


-or-


 

Live Flight TrackerFlight Track Log ✈ LAN932 ✈ 10-Sep-2013 ✈ SCEL / SCL - SAME / MDZ

Flight Track Log - Related Links

Times and Time Zones

All times are in EDT time to prevent confusion due to time zone crossing. See the LAN932 flight status page for this flight to view local times or setup timezone preferences in your user account.

Time Position Orientation Groundspeed Altitude Reporting Facility
EDT Latitude Longitude Course Direction KTS MPH feet Rate Location/Type
02:59PM -33.7620 -70.7810 176° South 394 453 12,200  Level FlightAware
03:00PM -33.8240 -70.7750 175° South 408 470 13,700 2,580 Climbing FlightAware
03:00PM -33.8640 -70.7500 153° Southeast 421 484 14,700 2,460 Climbing FlightAware
03:00PM -33.8750 -70.7370 136° Southeast 426 490 15,000 2,400 Climbing FlightAware
03:01PM -33.8960 -70.6810 114° Southeast 420 483 16,100 2,040 Climbing FlightAware
03:02PM -33.8830 -70.5910 80° East 409 471 17,300 1,860 Climbing FlightAware
03:02PM -33.8410 -70.4880 64° Northeast 432 497 18,900 2,340 Climbing FlightAware
03:03PM -33.8070 -70.3940 66° East 438 504 20,800 2,700 Climbing FlightAware
03:04PM -33.7820 -70.3210 68° East 439 505 22,200 2,460 Climbing FlightAware
03:04PM -33.7660 -70.2630 72° East 455 524 23,200 2,340 Climbing FlightAware
03:05PM -33.7720 -70.1650 94° East 475 547 24,700 2,340 Climbing FlightAware
03:05PM -33.7860 -70.0400 98° East 474 545 26,600 1,260 Climbing FlightAware
03:06PM -33.7960 -69.9430 97° East 474 545 26,700 60 Climbing FlightAware
03:07PM -33.8040 -69.8630 97° East 474 545 26,700  Level FlightAware
03:07PM -33.8120 -69.7830 97° East 474 545 26,700  Level FlightAware
03:08PM -33.8200 -69.7000 97° East 474 545 26,700  Level FlightAware
03:09PM -33.8290 -69.6200 98° East 474 545 26,700  Level FlightAware
03:09PM -33.8370 -69.5400 97° East 474 545 26,700 120 Level FlightAware
03:11PM -33.8670 -69.2150 96° East 453 521 27,000 120 Climbing FlightAware
03:12PM -33.8800 -69.0750 96° East 450 518 27,000  Level FlightAware
03:13PM -33.8920 -68.9460 96° East 450 518 27,000  Level FlightAware
03:13PM -33.9010 -68.8470 96° East 455 524 27,000  Level FlightAware
03:14PM -33.9080 -68.7680 96° East 455 524 27,000  Level FlightAware
03:15PM -33.9150 -68.6880 96° East 455 524 27,000  Level FlightAware
03:15PM -33.7740 -68.6800 North 456 525 27,000  Level FlightAware
03:15PM -33.7420 -68.6440 43° Northeast 389 448 27,000  Level FlightAware
03:16PM -33.6840 -68.5580 51° Northeast 407 468 27,000  Level FlightAware
03:17PM -33.6420 -68.4970 50° Northeast 404 465 27,000  Level FlightAware
03:17PM -33.6080 -68.4480 50° Northeast 406 467 27,000 60 Level FlightAware
03:18PM -33.5620 -68.3820 50° Northeast 406 467 27,100  Climbing FlightAware
03:19PM -33.5120 -68.3110 50° Northeast 404 465 27,000 -120 Descending FlightAware
03:19PM -33.4600 -68.2370 50° Northeast 401 461 27,000  Level FlightAware
03:20PM -33.4100 -68.1660 50° Northeast 401 461 27,000 -180 Level FlightAware
03:21PM -33.3700 -68.1090 50° Northeast 410 472 26,800 -1,020 Descending FlightAware
03:21PM -33.3220 -68.0410 50° Northeast 401 461 25,800 -1,860 Descending FlightAware
03:22PM -33.2850 -67.9890 50° Northeast 401 461 24,700 -2,340 Descending FlightAware
03:22PM -33.2410 -67.9270 50° Northeast 403 464 23,200 -2,280 Descending FlightAware
03:23PM -33.1960 -67.8830 39° Northeast 403 464 22,000 -1,980 Descending FlightAware
03:23PM -33.1740 -67.8750 17° North 360 414 21,500 -540 Descending FlightAware
03:24PM -33.1210 -67.8580 15° North 360 414 21,500 -2,700 Level FlightAware
03:24PM -33.0830 -67.9120 310° West 333 383 18,900 -2,640 Descending FlightAware
03:25PM -33.0450 -67.9550 317° Northwest 333 383 18,900 -3,000 Level FlightAware
03:25PM -33.0500 -67.9980 262° West 334 384 16,400 -5,460 Descending FlightAware
03:26PM -33.0370 -68.0450 288° West 321 369 15,200 -1,080 Descending FlightAware
03:26PM -33.0230 -68.1010 287° West 321 369 15,200 -2,160 Level FlightAware
03:27PM -32.9990 -68.1840 289° West 298 343 12,300 -2,940 Descending FlightAware
03:28PM -32.9850 -68.2370 287° West 290 334 11,400 -2,040 Descending FlightAware
03:28PM -32.9720 -68.2850 288° West 286 329 10,000 -2,520 Descending FlightAware
03:29PM -32.9610 -68.3250 288° West 283 326 8,900 -2,520 Descending FlightAware
03:29PM -32.9510 -68.3610 288° West 282 325 7,900 -2,580 Descending FlightAware
03:29PM -32.9470 -68.3760 288° West 282 325 7,400 -2,460 Descending FlightAware
03:30PM -32.9370 -68.4120 288° West 282 325 6,400 -1,680 Descending FlightAware
03:30PM -32.9270 -68.4490 288° West 265 305 6,000 -540 Descending FlightAware
03:30PM -32.9190 -68.4780 288° West 251 289 6,000 -960 Level FlightAware
03:31PM -32.9100 -68.5110 288° West 248 285 5,300 -1,620 Descending FlightAware
03:31PM -32.9030 -68.5340 290° West 249 287 4,800 -1,620 Descending FlightAware
03:31PM -32.8990 -68.5500 287° West 249 287 4,500 -1,200 Descending FlightAware
03:32PM -32.8900 -68.5820 289° West 248 285 4,100 -540 Descending FlightAware
03:32PM -32.8830 -68.6060 289° West 233 268 4,100  Level FlightAware
03:32PM -32.8770 -68.6300 287° West 232 267 4,100  Level FlightAware
03:33PM -32.8680 -68.6600 290° West 215 247 4,100  Level FlightAware
03:33PM -32.8670 -68.6630 292° West 211 243 4,100  Level FlightAware
03:33PM -32.8600 -68.6900 287° West 178 205 4,100  Level FlightAware
03:34PM -32.8550 -68.7090 287° West 171 197 4,100 -180 Level FlightAware
03:34PM -32.8500 -68.7260 289° West 168 193 4,000 -180 Descending FlightAware
03:34PM -32.8450 -68.7380 296° West 168 193 4,000  Level FlightAware
03:34PM -32.8400 -68.7440 315° West 169 194 4,000  Level FlightAware
03:34PM -32.8360 -68.7470 328° Northwest 170 196 4,000  Level FlightAware
03:35PM -32.8280 -68.7490 348° North 170 196 4,000 -180 Level FlightAware
03:35PM -32.8080 -68.7490 360° North 169 194 3,900 -180 Descending FlightAware
03:35PM -32.7930 -68.7480 North 170 196 3,900 120 Level FlightAware
03:36PM -32.7770 -68.7470 North 167 192 4,000 120 Climbing FlightAware
03:36PM -32.7620 -68.7580 328° Northwest 159 183 4,000 -180 Level FlightAware
03:36PM -32.7600 -68.7660 287° West 155 178 3,900 -540 Descending FlightAware
03:37PM -32.7640 -68.7850 256° West 144 166 3,700 -600 Descending FlightAware
03:37PM -32.7660 -68.7880 232° Southwest 143 165 3,600 -1,200 Descending FlightAware
03:37PM -32.7690 -68.7900 209° Southwest 140 161 3,500 -840 Descending FlightAware
03:37PM -32.7750 -68.7920 196° South 138 159 3,400 -600 Descending FlightAware
03:38PM -32.7940 -68.7920 180° South 142 163 3,100 -720 Descending FlightAware
03:38PM -32.8080 -68.7930 183° South 139 160 2,800 -780 Descending FlightAware
03:38PM -32.8210 -68.7930 180° South 142 163 2,600 -600 Descending FlightAware
03:39PM -32.8310 -68.7930 180° South 110 127 -7,800 Descending FlightAware